createdAt,value
2023-06-30T00:00:18.114Z,67.16
2023-06-30T00:01:20.977Z,67.10
2023-06-30T00:02:30.594Z,67.05
2023-06-30T00:03:54.571Z,67.00
2023-06-30T00:04:57.540Z,67.08
2023-06-30T00:06:00.449Z,67.09
2023-06-30T00:07:03.757Z,67.06
2023-06-30T00:08:13.542Z,67.05
2023-06-30T00:09:22.558Z,67.08
2023-06-30T00:10:25.428Z,67.10
2023-06-30T00:11:28.230Z,67.18
2023-06-30T00:12:31.180Z,67.28
2023-06-30T00:13:34.019Z,67.33
2023-06-30T00:14:43.558Z,67.36
2023-06-30T00:15:46.570Z,67.48
2023-06-30T00:16:50.664Z,67.53
2023-06-30T00:17:54.930Z,67.53
2023-06-30T00:18:58.381Z,67.60
2023-06-30T00:20:07.661Z,67.64
2023-06-30T00:21:10.564Z,67.67
2023-06-30T00:22:13.574Z,67.61
2023-06-30T00:23:16.526Z,67.64
2023-06-30T00:24:19.379Z,67.52
2023-06-30T00:25:28.571Z,67.42
2023-06-30T00:26:31.564Z,67.38
2023-06-30T00:27:34.410Z,67.37
2023-06-30T00:28:38.067Z,67.33
2023-06-30T00:29:40.970Z,67.32
2023-06-30T00:30:50.651Z,67.41
2023-06-30T00:31:53.639Z,67.32
2023-06-30T00:32:56.503Z,67.27
2023-06-30T00:33:59.707Z,67.22
2023-06-30T00:35:02.843Z,67.17
2023-06-30T00:36:12.598Z,67.11
2023-06-30T00:37:15.429Z,67.22
2023-06-30T00:38:18.358Z,67.23
2023-06-30T00:39:21.214Z,67.32
2023-06-30T00:40:24.102Z,67.32
2023-06-30T00:41:33.650Z,67.45
2023-06-30T00:42:36.591Z,67.64
2023-06-30T00:43:41.154Z,68.09
2023-06-30T00:44:44.112Z,68.35
2023-06-30T00:45:47.269Z,68.24
2023-06-30T00:46:56.752Z,68.08
2023-06-30T00:47:59.662Z,67.98
2023-06-30T00:49:02.720Z,68.08
2023-06-30T00:50:06.430Z,68.08
2023-06-30T00:51:09.514Z,68.10
2023-06-30T00:52:18.656Z,68.14
2023-06-30T00:53:21.644Z,68.18
2023-06-30T00:54:24.596Z,68.21
2023-06-30T00:55:28.495Z,68.77
2023-06-30T00:56:31.360Z,68.78
2023-06-30T00:57:40.653Z,68.72
2023-06-30T00:58:44.384Z,68.70
2023-06-30T00:59:47.217Z,68.69
2023-06-30T01:00:50.304Z,68.62
2023-06-30T01:02:01.273Z,68.69
2023-06-30T01:03:36.802Z,68.67
2023-06-30T01:04:58.030Z,68.73
2023-06-30T01:06:21.138Z,68.77
2023-06-30T01:07:28.885Z,68.79
2023-06-30T01:08:38.700Z,68.74
2023-06-30T01:09:50.713Z,68.73
2023-06-30T01:10:55.694Z,68.73
2023-06-30T01:11:58.874Z,68.72
2023-06-30T01:13:04.239Z,68.62
2023-06-30T01:14:15.736Z,68.61
2023-06-30T01:15:19.283Z,68.63
2023-06-30T01:16:24.201Z,68.64
2023-06-30T01:17:28.423Z,68.73
2023-06-30T01:18:34.917Z,68.80
2023-06-30T01:19:47.724Z,68.87
2023-06-30T01:20:51.520Z,68.94
2023-06-30T01:22:05.128Z,68.90
2023-06-30T01:23:25.217Z,68.79
2023-06-30T01:24:36.737Z,68.80
2023-06-30T01:25:39.854Z,68.75
2023-06-30T01:26:43.401Z,68.75
2023-06-30T01:27:46.627Z,68.71
2023-06-30T01:28:53.199Z,68.70
2023-06-30T01:30:02.755Z,68.72
2023-06-30T01:31:11.224Z,68.78
2023-06-30T01:32:19.401Z,68.77
2023-06-30T01:33:23.543Z,68.78
2023-06-30T01:34:26.358Z,68.78
2023-06-30T01:35:36.804Z,68.78
2023-06-30T01:36:39.619Z,68.81
2023-06-30T01:37:42.534Z,68.84
2023-06-30T01:38:45.741Z,68.83
2023-06-30T01:39:48.588Z,68.85
2023-06-30T01:40:57.808Z,68.85
2023-06-30T01:42:00.699Z,68.81
2023-06-30T01:43:04.094Z,68.90
2023-06-30T01:44:07.692Z,68.94
2023-06-30T01:45:13.570Z,68.92
2023-06-30T01:46:23.889Z,68.88
2023-06-30T01:47:27.030Z,68.87
2023-06-30T01:48:30.233Z,68.86
2023-06-30T01:49:35.552Z,68.84
2023-06-30T01:50:40.042Z,68.92
2023-06-30T01:51:49.778Z,68.95
2023-06-30T01:52:53.033Z,68.93
2023-06-30T01:53:55.967Z,68.98
2023-06-30T01:54:58.917Z,69.07
2023-06-30T01:56:02.059Z,69.43
2023-06-30T01:57:11.794Z,69.66
2023-06-30T01:58:14.617Z,69.39
2023-06-30T01:59:17.837Z,69.22
2023-06-30T02:00:20.745Z,69.34
2023-06-30T02:01:23.613Z,69.39
2023-06-30T02:02:32.843Z,69.36
2023-06-30T02:03:42.093Z,69.41
2023-06-30T02:04:57.833Z,69.51
2023-06-30T02:06:00.764Z,69.62
2023-06-30T02:07:09.894Z,69.79
2023-06-30T02:08:12.815Z,69.78
2023-06-30T02:09:15.814Z,69.74
2023-06-30T02:10:18.849Z,69.69
2023-06-30T02:11:23.009Z,69.67
2023-06-30T02:12:32.849Z,69.72
2023-06-30T02:13:35.912Z,69.74
2023-06-30T02:14:38.774Z,69.88
2023-06-30T02:15:41.624Z,69.97
2023-06-30T02:16:44.490Z,70.09
2023-06-30T02:17:53.882Z,70.08
2023-06-30T02:18:57.680Z,69.99
2023-06-30T02:20:12.216Z,70.02
2023-06-30T02:21:15.698Z,69.84
2023-06-30T02:22:18.590Z,69.91
2023-06-30T02:23:27.899Z,69.97
2023-06-30T02:24:30.715Z,70.10
2023-06-30T02:25:33.564Z,70.12
2023-06-30T02:26:36.440Z,70.15
2023-06-30T02:27:39.307Z,70.25
2023-06-30T02:28:48.901Z,70.23
2023-06-30T02:29:52.892Z,70.14
2023-06-30T02:30:57.635Z,70.08
2023-06-30T02:32:00.447Z,69.96
2023-06-30T02:33:03.327Z,69.95
2023-06-30T02:34:12.900Z,69.84
2023-06-30T02:35:15.846Z,69.72
2023-06-30T02:36:18.778Z,69.68
2023-06-30T02:37:21.596Z,69.70
2023-06-30T02:38:24.418Z,69.75
2023-06-30T02:39:33.930Z,69.81
2023-06-30T02:40:38.812Z,69.72
2023-06-30T02:41:41.642Z,69.70
2023-06-30T02:42:44.540Z,69.73
2023-06-30T02:43:47.596Z,69.72
2023-06-30T02:44:56.914Z,69.71
2023-06-30T02:45:59.748Z,69.73
2023-06-30T02:47:02.653Z,69.72
2023-06-30T02:48:05.573Z,69.72
2023-06-30T02:49:08.422Z,69.66
2023-06-30T02:50:17.914Z,69.59
2023-06-30T02:51:20.846Z,69.63
2023-06-30T02:52:23.649Z,69.50
2023-06-30T02:53:26.510Z,69.59
2023-06-30T02:54:29.344Z,69.63
2023-06-30T02:55:39.391Z,70.02
2023-06-30T02:56:42.319Z,70.09
2023-06-30T02:57:45.149Z,70.10
2023-06-30T02:58:47.978Z,70.10
2023-06-30T02:59:50.904Z,69.97
2023-06-30T03:01:00.075Z,69.90
2023-06-30T03:02:04.963Z,69.88
2023-06-30T03:03:08.827Z,69.97
2023-06-30T03:04:18.025Z,70.08
2023-06-30T03:05:27.353Z,70.06
2023-06-30T03:06:36.998Z,70.19
2023-06-30T03:07:39.966Z,70.47
2023-06-30T03:08:43.013Z,70.61
2023-06-30T03:09:46.343Z,70.76
2023-06-30T03:10:57.971Z,70.77
2023-06-30T03:12:00.816Z,70.64
2023-06-30T03:13:03.683Z,70.53
2023-06-30T03:14:06.519Z,70.34
2023-06-30T03:15:09.852Z,70.10
2023-06-30T03:16:18.999Z,69.71
2023-06-30T03:17:22.874Z,69.79
2023-06-30T03:18:25.775Z,69.76
2023-06-30T03:19:28.648Z,70.09
2023-06-30T03:20:31.506Z,70.29
2023-06-30T03:21:40.993Z,70.59
2023-06-30T03:22:44.391Z,70.75
2023-06-30T03:23:48.277Z,70.73
2023-06-30T03:24:51.129Z,70.78
2023-06-30T03:25:53.965Z,70.98
2023-06-30T03:27:02.994Z,70.96
2023-06-30T03:28:06.153Z,70.57
2023-06-30T03:29:09.164Z,70.48
2023-06-30T03:30:12.611Z,70.58
2023-06-30T03:31:15.477Z,70.81
2023-06-30T03:32:25.046Z,70.96
2023-06-30T03:33:27.888Z,71.10
2023-06-30T03:34:30.681Z,71.33
2023-06-30T03:35:33.560Z,71.40
2023-06-30T03:36:36.416Z,71.35
2023-06-30T03:37:46.029Z,71.34
2023-06-30T03:38:48.935Z,71.36
2023-06-30T03:39:51.771Z,71.35
2023-06-30T03:40:54.714Z,71.27
2023-06-30T03:41:57.586Z,71.06
2023-06-30T03:43:07.049Z,70.93
2023-06-30T03:44:09.932Z,71.02
2023-06-30T03:45:12.955Z,70.92
2023-06-30T03:46:17.804Z,70.92
2023-06-30T03:47:20.712Z,70.96
2023-06-30T03:48:30.047Z,70.94
2023-06-30T03:49:32.879Z,70.94
2023-06-30T03:50:35.729Z,70.95
2023-06-30T03:51:38.799Z,70.86
2023-06-30T03:52:41.657Z,70.79
2023-06-30T03:53:52.122Z,70.74
2023-06-30T03:54:54.979Z,70.72
2023-06-30T03:56:00.263Z,70.76
2023-06-30T03:57:03.104Z,70.84
2023-06-30T03:58:05.986Z,71.32
2023-06-30T03:59:15.070Z,71.21
2023-06-30T04:00:18.270Z,71.11
2023-06-30T04:01:21.190Z,71.01
2023-06-30T04:02:24.112Z,71.14
2023-06-30T04:03:34.368Z,71.10
2023-06-30T04:04:50.143Z,71.29
2023-06-30T04:05:53.020Z,71.38
2023-06-30T04:06:56.049Z,71.25
2023-06-30T04:07:59.003Z,71.40
2023-06-30T04:09:02.473Z,71.79
2023-06-30T04:10:12.095Z,71.84
2023-06-30T04:11:15.525Z,71.68
2023-06-30T04:12:18.370Z,71.64
2023-06-30T04:13:21.168Z,71.69
2023-06-30T04:14:24.055Z,71.60
2023-06-30T04:15:33.106Z,71.61
2023-06-30T04:16:35.972Z,71.66
2023-06-30T04:17:39.998Z,71.76
2023-06-30T04:18:42.862Z,71.85
2023-06-30T04:19:45.692Z,71.88
2023-06-30T04:20:56.107Z,71.89
2023-06-30T04:21:59.024Z,71.87
2023-06-30T04:23:01.940Z,71.86
2023-06-30T04:24:05.204Z,71.83
2023-06-30T04:25:09.204Z,71.76
2023-06-30T04:26:18.117Z,71.76
2023-06-30T04:27:21.117Z,71.76
2023-06-30T04:28:23.981Z,71.74
2023-06-30T04:29:26.905Z,71.67
2023-06-30T04:30:29.708Z,71.65
2023-06-30T04:31:39.195Z,71.60
2023-06-30T04:32:42.091Z,71.55
2023-06-30T04:33:45.164Z,72.17
2023-06-30T04:34:48.041Z,72.34
2023-06-30T04:35:50.876Z,72.31
2023-06-30T04:37:00.169Z,72.17
2023-06-30T04:38:02.978Z,72.09
2023-06-30T04:39:05.910Z,71.99
2023-06-30T04:40:10.661Z,71.95
2023-06-30T04:41:13.485Z,71.87
2023-06-30T04:42:23.167Z,72.19
2023-06-30T04:43:26.154Z,72.14
2023-06-30T04:44:28.976Z,72.15
2023-06-30T04:45:31.949Z,72.00
2023-06-30T04:46:34.793Z,71.85
2023-06-30T04:47:44.223Z,71.78
2023-06-30T04:48:47.728Z,71.75
2023-06-30T04:49:50.585Z,71.97
2023-06-30T04:50:53.450Z,72.21
2023-06-30T04:51:56.364Z,73.00
2023-06-30T04:53:06.193Z,73.12
2023-06-30T04:54:09.053Z,72.97
2023-06-30T04:55:12.284Z,72.75
2023-06-30T04:56:15.143Z,72.78
2023-06-30T04:57:18.058Z,72.64
2023-06-30T04:58:27.224Z,72.54
2023-06-30T04:59:30.144Z,73.32
2023-06-30T05:00:32.979Z,73.17
2023-06-30T05:01:36.615Z,73.07
2023-06-30T05:02:39.519Z,72.93
2023-06-30T05:03:49.322Z,72.86
2023-06-30T05:04:59.321Z,72.79
2023-06-30T05:06:08.684Z,72.86
2023-06-30T05:07:12.464Z,72.86
2023-06-30T05:08:16.853Z,72.92
2023-06-30T05:09:27.270Z,72.94
2023-06-30T05:10:30.094Z,72.86
2023-06-30T05:11:33.332Z,72.90
2023-06-30T05:12:36.156Z,73.51
2023-06-30T05:13:39.254Z,73.31
2023-06-30T05:14:48.331Z,73.41
2023-06-30T05:15:51.374Z,73.50
2023-06-30T05:16:54.400Z,73.80
2023-06-30T05:17:57.336Z,73.78
2023-06-30T05:19:00.201Z,73.92
2023-06-30T05:20:14.249Z,73.96
2023-06-30T05:21:17.170Z,74.23
2023-06-30T05:22:20.087Z,74.30
2023-06-30T05:23:22.896Z,74.47
2023-06-30T05:24:25.700Z,74.41
2023-06-30T05:25:35.282Z,74.36
2023-06-30T05:26:45.254Z,74.23
2023-06-30T05:27:48.067Z,74.16
2023-06-30T05:29:03.480Z,74.13
2023-06-30T05:30:08.189Z,74.24
2023-06-30T05:31:11.023Z,74.21
2023-06-30T05:32:20.274Z,73.94
2023-06-30T05:33:23.108Z,73.65
2023-06-30T05:34:25.994Z,73.58
2023-06-30T05:35:28.853Z,73.52
2023-06-30T05:36:34.337Z,73.39
2023-06-30T05:37:45.293Z,73.29
2023-06-30T05:38:48.090Z,73.03
2023-06-30T05:39:50.971Z,72.96
2023-06-30T05:40:53.826Z,73.05
2023-06-30T05:41:56.673Z,73.06
2023-06-30T05:43:06.285Z,72.80
2023-06-30T05:44:09.833Z,72.57
2023-06-30T05:45:12.857Z,72.47
2023-06-30T05:46:15.753Z,72.16
2023-06-30T05:47:18.816Z,72.26
2023-06-30T05:48:29.300Z,72.56
2023-06-30T05:49:32.256Z,73.11
2023-06-30T05:50:35.224Z,72.67
2023-06-30T05:51:38.308Z,72.74
2023-06-30T05:52:41.589Z,72.53
2023-06-30T05:53:51.316Z,72.21
2023-06-30T05:54:54.175Z,71.73
2023-06-30T05:55:58.323Z,71.47
2023-06-30T05:57:01.129Z,71.33
2023-06-30T05:58:03.975Z,71.07
2023-06-30T05:59:13.348Z,70.62
2023-06-30T06:00:16.596Z,70.71
2023-06-30T06:01:19.611Z,70.71
2023-06-30T06:02:22.471Z,70.90
2023-06-30T06:03:26.207Z,70.35
2023-06-30T06:04:42.483Z,70.38
2023-06-30T06:05:52.000Z,70.01
2023-06-30T06:06:55.375Z,69.66
2023-06-30T06:08:04.462Z,69.40
2023-06-30T06:09:07.968Z,69.33
2023-06-30T06:10:11.441Z,69.18
2023-06-30T06:11:14.670Z,68.75
2023-06-30T06:12:17.578Z,68.59
2023-06-30T06:13:43.355Z,68.45
2023-06-30T06:14:46.239Z,68.60
2023-06-30T06:15:49.043Z,67.96
2023-06-30T06:16:51.938Z,67.60
2023-06-30T06:17:54.814Z,67.44
2023-06-30T06:19:04.362Z,67.02
2023-06-30T06:20:07.646Z,66.38
2023-06-30T06:21:11.148Z,66.17
2023-06-30T06:22:14.247Z,67.27
2023-06-30T06:23:17.179Z,65.72
2023-06-30T06:24:26.391Z,65.76
2023-06-30T06:25:29.208Z,65.80
2023-06-30T06:26:32.647Z,65.91
2023-06-30T06:27:37.321Z,65.97
2023-06-30T06:28:40.276Z,66.22
2023-06-30T06:29:49.416Z,65.94
2023-06-30T06:30:52.398Z,65.86
2023-06-30T06:31:55.311Z,65.06
2023-06-30T06:32:58.178Z,65.21
2023-06-30T06:34:01.105Z,65.39
2023-06-30T06:35:10.408Z,64.84
2023-06-30T06:36:13.644Z,61.48
2023-06-30T06:37:17.685Z,61.59
2023-06-30T06:38:21.650Z,61.78
2023-06-30T06:39:24.547Z,61.38
2023-06-30T06:40:33.425Z,60.87
2023-06-30T06:41:36.258Z,60.85
2023-06-30T06:42:39.068Z,61.30
2023-06-30T06:43:41.952Z,60.90
2023-06-30T06:44:44.769Z,60.33
2023-06-30T06:45:55.670Z,60.38
2023-06-30T06:47:46.498Z,60.82
2023-06-30T06:48:49.335Z,60.94
2023-06-30T06:49:52.173Z,61.27
2023-06-30T06:51:06.501Z,61.07
2023-06-30T06:52:09.317Z,60.39
2023-06-30T06:53:18.514Z,60.77
2023-06-30T06:54:21.346Z,60.75
2023-06-30T06:55:24.158Z,60.47
2023-06-30T06:56:26.986Z,60.78
2023-06-30T06:57:29.858Z,61.50
2023-06-30T06:58:49.527Z,63.06
2023-06-30T06:59:52.333Z,61.25
2023-06-30T07:00:55.636Z,61.24
2023-06-30T07:02:04.650Z,62.62
2023-06-30T07:03:07.627Z,61.12
2023-06-30T07:04:16.617Z,59.37
2023-06-30T07:05:26.302Z,59.71
2023-06-30T07:06:35.575Z,60.37
2023-06-30T07:07:39.212Z,61.18
2023-06-30T07:08:42.042Z,60.08
2023-06-30T07:09:44.970Z,59.91
2023-06-30T07:10:49.000Z,59.22
2023-06-30T07:11:59.600Z,59.80
2023-06-30T07:13:03.268Z,59.61
2023-06-30T07:14:06.147Z,60.18
2023-06-30T07:15:09.837Z,59.29
2023-06-30T07:16:13.163Z,59.27
2023-06-30T07:17:22.748Z,61.76
2023-06-30T07:18:25.784Z,58.74
2023-06-30T07:19:28.746Z,59.08
2023-06-30T07:20:32.016Z,59.52
2023-06-30T07:21:34.799Z,58.86
2023-06-30T07:22:44.714Z,58.58
2023-06-30T07:23:51.268Z,59.29
2023-06-30T07:24:54.116Z,59.48
2023-06-30T07:25:57.074Z,57.70
2023-06-30T07:27:01.133Z,55.95
2023-06-30T07:28:11.730Z,56.09
2023-06-30T07:29:14.981Z,55.25
2023-06-30T07:30:19.093Z,55.58
2023-06-30T07:31:22.004Z,56.03
2023-06-30T07:32:24.882Z,57.15
2023-06-30T07:33:34.750Z,57.56
2023-06-30T07:34:38.741Z,57.66
2023-06-30T07:35:41.819Z,57.97
2023-06-30T07:36:44.831Z,56.26
2023-06-30T07:37:48.813Z,56.51
2023-06-30T07:38:57.753Z,56.82
2023-06-30T07:40:12.384Z,55.96
2023-06-30T07:41:19.323Z,54.98
2023-06-30T07:42:22.174Z,56.28
2023-06-30T07:43:25.394Z,52.42
2023-06-30T07:44:34.812Z,51.82
2023-06-30T07:45:37.678Z,50.95
2023-06-30T07:46:41.080Z,51.28
2023-06-30T07:47:45.435Z,51.69
2023-06-30T07:48:48.546Z,51.74
2023-06-30T07:49:57.933Z,50.67
2023-06-30T07:51:09.112Z,49.60
2023-06-30T07:52:13.240Z,50.05
2023-06-30T07:53:16.181Z,52.61
2023-06-30T07:54:19.355Z,52.53
2023-06-30T07:55:28.936Z,52.23
2023-06-30T07:56:31.770Z,50.39
2023-06-30T07:57:41.009Z,51.26
2023-06-30T07:58:43.947Z,52.10
2023-06-30T07:59:46.782Z,48.96
2023-06-30T08:00:49.579Z,49.80
2023-06-30T08:01:52.860Z,49.40
2023-06-30T08:03:02.239Z,48.01
2023-06-30T08:04:12.381Z,47.06
2023-06-30T08:05:29.112Z,50.13
2023-06-30T08:06:32.073Z,50.99
2023-06-30T08:07:48.256Z,49.93
2023-06-30T08:08:52.915Z,49.62
2023-06-30T08:09:55.786Z,49.23
2023-06-30T08:10:58.693Z,49.38
2023-06-30T08:12:01.512Z,49.22
2023-06-30T08:13:10.977Z,46.93
2023-06-30T08:14:13.791Z,46.94
2023-06-30T08:15:16.704Z,45.29
2023-06-30T08:16:19.648Z,45.48
2023-06-30T08:17:28.464Z,46.84
2023-06-30T08:18:51.344Z,47.47
2023-06-30T08:19:55.328Z,49.04
2023-06-30T08:21:00.774Z,48.43
2023-06-30T08:22:04.135Z,48.93
2023-06-30T08:23:07.172Z,48.71
2023-06-30T08:24:16.994Z,47.99
2023-06-30T08:25:24.166Z,47.62
2023-06-30T08:26:27.070Z,46.87
2023-06-30T08:27:30.021Z,47.40
2023-06-30T08:28:33.088Z,45.63
2023-06-30T08:29:42.029Z,46.35
2023-06-30T08:30:44.849Z,46.35
2023-06-30T08:31:47.964Z,45.42
2023-06-30T08:32:51.061Z,45.66
2023-06-30T08:33:53.949Z,48.33
2023-06-30T08:35:03.039Z,47.14
2023-06-30T08:36:06.997Z,47.72
2023-06-30T08:37:09.854Z,45.39
2023-06-30T08:38:12.690Z,45.77
2023-06-30T08:39:22.096Z,44.91
2023-06-30T08:40:29.080Z,44.09
2023-06-30T08:41:33.225Z,45.16
2023-06-30T08:42:39.317Z,45.97
2023-06-30T08:43:43.610Z,47.62
2023-06-30T08:44:55.150Z,46.18
2023-06-30T08:45:58.299Z,45.29
2023-06-30T08:47:03.681Z,42.01
2023-06-30T08:48:08.142Z,42.03
2023-06-30T08:49:11.543Z,43.65
2023-06-30T08:50:22.241Z,43.22
2023-06-30T08:51:26.081Z,44.73
2023-06-30T08:52:29.874Z,47.04
2023-06-30T08:53:33.532Z,46.53
2023-06-30T08:54:36.722Z,45.00
2023-06-30T08:55:46.452Z,45.88
2023-06-30T08:56:49.884Z,45.28
2023-06-30T08:57:54.760Z,46.06
2023-06-30T08:58:57.613Z,45.56
2023-06-30T09:00:00.451Z,45.59
2023-06-30T09:01:10.188Z,44.95
2023-06-30T09:02:14.091Z,41.90
2023-06-30T09:03:17.220Z,41.99
2023-06-30T09:04:27.280Z,42.59
2023-06-30T09:05:39.195Z,43.10
2023-06-30T09:07:01.383Z,42.99
2023-06-30T09:08:10.820Z,43.46
2023-06-30T09:09:22.840Z,43.95
2023-06-30T09:10:30.643Z,44.28
2023-06-30T09:11:35.380Z,42.14
2023-06-30T09:12:47.176Z,43.64
2023-06-30T09:13:50.216Z,42.55
2023-06-30T09:14:54.443Z,41.99
2023-06-30T09:16:00.259Z,42.21
2023-06-30T09:17:04.148Z,42.84
2023-06-30T09:18:14.226Z,42.63
2023-06-30T09:19:17.698Z,43.22
2023-06-30T09:20:23.226Z,44.37
2023-06-30T09:21:27.913Z,43.54
2023-06-30T09:22:54.952Z,42.79
2023-06-30T09:24:00.201Z,42.45
2023-06-30T09:25:03.031Z,43.17
2023-06-30T09:26:15.057Z,42.29
2023-06-30T09:27:19.773Z,41.76
2023-06-30T09:28:22.638Z,40.77
2023-06-30T09:29:32.324Z,41.21
2023-06-30T09:30:39.002Z,42.99
2023-06-30T09:31:42.295Z,42.90
2023-06-30T09:32:45.467Z,40.78
2023-06-30T09:33:56.339Z,40.27
2023-06-30T09:35:02.754Z,40.56
2023-06-30T09:36:06.360Z,40.39
2023-06-30T09:37:12.518Z,42.08
2023-06-30T09:38:17.537Z,41.20
2023-06-30T09:39:27.416Z,41.36
2023-06-30T09:40:30.222Z,39.09
2023-06-30T09:41:33.194Z,39.57
2023-06-30T09:42:36.714Z,40.11
2023-06-30T09:43:39.556Z,41.31
2023-06-30T09:44:49.378Z,39.75
2023-06-30T09:46:02.035Z,42.31
2023-06-30T09:47:05.815Z,41.40
2023-06-30T09:48:13.155Z,40.65
2023-06-30T09:49:28.226Z,43.05
2023-06-30T09:50:41.373Z,40.87
2023-06-30T09:51:45.239Z,41.38
2023-06-30T09:52:48.075Z,39.84
2023-06-30T09:53:54.773Z,39.88
2023-06-30T09:54:57.599Z,40.28
2023-06-30T09:56:07.402Z,40.26
2023-06-30T09:57:10.718Z,40.42
2023-06-30T09:58:13.593Z,39.97
2023-06-30T09:59:16.518Z,39.11
2023-06-30T10:00:34.441Z,38.53
2023-06-30T10:01:45.419Z,39.51
2023-06-30T10:03:03.590Z,39.47
2023-06-30T10:04:15.151Z,41.56
2023-06-30T10:05:31.403Z,41.63
2023-06-30T10:06:41.382Z,38.86
2023-06-30T10:07:44.338Z,37.97
2023-06-30T10:08:48.550Z,38.43
2023-06-30T10:09:54.348Z,38.49
2023-06-30T10:10:59.150Z,39.06
2023-06-30T10:12:09.421Z,38.42
2023-06-30T10:13:17.716Z,38.94
2023-06-30T10:14:29.598Z,38.68
2023-06-30T10:15:34.508Z,39.16
2023-06-30T10:16:38.263Z,37.61
2023-06-30T10:17:52.576Z,38.99
2023-06-30T10:18:58.311Z,41.19
2023-06-30T10:20:04.744Z,40.31
2023-06-30T10:21:07.656Z,37.79
2023-06-30T10:22:11.305Z,37.83
2023-06-30T10:23:21.893Z,37.84
2023-06-30T10:24:30.208Z,37.69
2023-06-30T10:25:35.440Z,40.03
2023-06-30T10:26:39.070Z,36.93
2023-06-30T10:27:43.150Z,38.51
2023-06-30T10:28:52.503Z,39.07
2023-06-30T10:29:56.867Z,38.99
2023-06-30T10:30:59.791Z,38.62
2023-06-30T10:32:02.869Z,37.17
2023-06-30T10:33:05.888Z,36.93
2023-06-30T10:34:15.472Z,37.12
2023-06-30T10:35:19.221Z,37.04
2023-06-30T10:36:23.127Z,36.52
2023-06-30T10:37:28.006Z,37.20
2023-06-30T10:38:31.213Z,36.26
2023-06-30T10:39:41.498Z,37.31
2023-06-30T10:40:44.343Z,39.05
2023-06-30T10:41:51.798Z,37.96
2023-06-30T10:43:03.494Z,38.97
2023-06-30T10:44:10.324Z,39.73
2023-06-30T10:45:13.291Z,38.69
2023-06-30T10:46:16.177Z,39.91
2023-06-30T10:47:31.668Z,40.09
2023-06-30T10:48:34.725Z,39.02
2023-06-30T10:49:39.818Z,37.51
2023-06-30T10:50:44.120Z,38.18
2023-06-30T10:51:52.429Z,37.90
2023-06-30T10:53:03.539Z,38.70
2023-06-30T10:54:06.438Z,37.19
2023-06-30T10:55:09.814Z,37.22
2023-06-30T10:56:13.087Z,36.86
2023-06-30T10:57:19.820Z,38.39
2023-06-30T10:58:33.541Z,36.97
2023-06-30T10:59:50.487Z,36.74
2023-06-30T11:01:06.829Z,37.36
2023-06-30T11:02:21.538Z,36.68
2023-06-30T11:03:30.673Z,36.65
2023-06-30T11:04:46.833Z,38.04
2023-06-30T11:06:20.262Z,39.64
2023-06-30T11:07:28.424Z,38.65
2023-06-30T11:08:38.588Z,38.36
2023-06-30T11:09:50.538Z,38.05
2023-06-30T11:10:53.427Z,38.72
2023-06-30T11:11:56.581Z,36.55
2023-06-30T11:13:00.156Z,35.68
2023-06-30T11:14:13.602Z,35.47
2023-06-30T11:15:53.723Z,37.01
2023-06-30T11:17:09.301Z,38.43
2023-06-30T11:18:13.423Z,37.20
2023-06-30T11:19:33.644Z,36.80
2023-06-30T11:20:36.678Z,36.57
2023-06-30T11:21:41.191Z,36.44
2023-06-30T11:22:56.707Z,36.41
2023-06-30T11:23:59.649Z,36.91
2023-06-30T11:25:13.617Z,37.53
2023-06-30T11:26:20.981Z,40.90
2023-06-30T11:27:24.039Z,38.94
2023-06-30T11:28:28.263Z,37.97
2023-06-30T11:29:38.658Z,37.03
2023-06-30T11:30:43.499Z,35.35
2023-06-30T11:31:46.416Z,36.15
2023-06-30T11:32:50.361Z,37.17
2023-06-30T11:33:53.701Z,35.53
2023-06-30T11:35:04.661Z,35.27
2023-06-30T11:36:14.700Z,35.67
2023-06-30T11:37:18.240Z,35.18
2023-06-30T11:38:21.544Z,36.02
2023-06-30T11:39:24.419Z,36.76
2023-06-30T11:40:33.716Z,35.76
2023-06-30T11:41:36.620Z,36.61
2023-06-30T11:42:42.892Z,36.39
2023-06-30T11:43:49.864Z,36.30
2023-06-30T11:44:52.889Z,36.38
2023-06-30T11:46:06.642Z,35.92
2023-06-30T11:47:09.622Z,35.90
2023-06-30T11:48:14.993Z,37.04
2023-06-30T11:49:18.052Z,36.99
2023-06-30T11:50:21.633Z,36.14
2023-06-30T11:51:30.661Z,36.12
2023-06-30T11:52:35.423Z,36.63
2023-06-30T11:53:38.256Z,36.79
2023-06-30T11:54:42.153Z,35.39
2023-06-30T11:55:46.799Z,35.59
2023-06-30T11:56:56.695Z,36.07
2023-06-30T11:57:59.516Z,36.15
2023-06-30T11:59:02.754Z,34.98
2023-06-30T12:00:19.718Z,36.14
2023-06-30T12:01:22.879Z,37.35
2023-06-30T12:02:25.760Z,37.25
2023-06-30T12:03:29.563Z,37.51
2023-06-30T12:04:40.883Z,36.27
2023-06-30T12:06:06.714Z,36.44
2023-06-30T12:07:09.650Z,36.23
2023-06-30T12:08:12.513Z,35.70
2023-06-30T12:09:15.439Z,37.10
2023-06-30T12:10:18.629Z,36.30
2023-06-30T12:11:28.728Z,36.56
2023-06-30T12:12:32.437Z,36.19
2023-06-30T12:13:35.543Z,36.53
2023-06-30T12:14:43.214Z,38.16
2023-06-30T12:15:52.721Z,37.42
2023-06-30T12:16:56.344Z,35.63
2023-06-30T12:17:59.218Z,35.73
2023-06-30T12:19:08.241Z,36.22
2023-06-30T12:20:13.232Z,36.62
2023-06-30T12:21:22.758Z,37.40
2023-06-30T12:22:32.524Z,37.25
2023-06-30T12:23:35.537Z,37.36
2023-06-30T12:24:40.251Z,35.27
2023-06-30T12:25:49.786Z,35.82
2023-06-30T12:26:59.811Z,37.00
2023-06-30T12:28:06.692Z,37.91
2023-06-30T12:29:09.741Z,37.09
2023-06-30T12:30:20.483Z,35.90
2023-06-30T12:31:26.667Z,36.06
2023-06-30T12:32:37.830Z,36.46
2023-06-30T12:33:40.707Z,35.66
2023-06-30T12:34:43.687Z,35.03
2023-06-30T12:35:49.147Z,35.87
2023-06-30T12:36:57.854Z,37.35
2023-06-30T12:38:07.833Z,35.97
2023-06-30T12:39:10.701Z,35.93
2023-06-30T12:40:14.091Z,36.24
2023-06-30T12:41:17.014Z,37.30
2023-06-30T12:42:20.546Z,38.12
2023-06-30T12:43:32.020Z,35.96
2023-06-30T12:44:34.953Z,36.62
2023-06-30T12:45:37.760Z,36.23
2023-06-30T12:46:40.670Z,36.47
2023-06-30T12:47:43.689Z,36.54
2023-06-30T12:48:53.847Z,36.77
2023-06-30T12:49:56.671Z,36.37
2023-06-30T12:51:00.361Z,36.06
2023-06-30T12:52:03.992Z,36.67
2023-06-30T12:53:10.114Z,35.66
2023-06-30T12:54:19.893Z,35.38
2023-06-30T12:55:24.745Z,35.62
2023-06-30T12:56:27.843Z,36.76
2023-06-30T12:57:30.844Z,36.65
2023-06-30T12:58:34.191Z,36.07
2023-06-30T12:59:43.945Z,35.44
2023-06-30T13:00:46.998Z,34.78
2023-06-30T13:01:50.323Z,34.79
2023-06-30T13:02:53.275Z,35.07
2023-06-30T13:03:56.327Z,35.04
2023-06-30T13:05:05.876Z,35.87
2023-06-30T13:06:15.068Z,35.65
2023-06-30T13:07:18.000Z,35.60
2023-06-30T13:08:20.911Z,36.26
2023-06-30T13:09:23.775Z,35.96
2023-06-30T13:10:33.895Z,34.85
2023-06-30T13:11:36.980Z,35.59
2023-06-30T13:12:42.869Z,35.84
2023-06-30T13:13:45.711Z,35.87
2023-06-30T13:14:48.529Z,35.56
2023-06-30T13:15:57.939Z,35.96
2023-06-30T13:17:00.867Z,35.15
2023-06-30T13:18:03.862Z,36.02
2023-06-30T13:19:07.081Z,35.52
2023-06-30T13:20:10.385Z,35.18
2023-06-30T13:21:19.976Z,36.62
2023-06-30T13:22:22.937Z,36.77
2023-06-30T13:23:36.401Z,34.89
2023-06-30T13:24:40.092Z,34.78
2023-06-30T13:25:42.956Z,34.73
2023-06-30T13:26:53.974Z,34.41
2023-06-30T13:27:56.838Z,34.75
2023-06-30T13:28:59.675Z,35.85
2023-06-30T13:30:02.663Z,36.09
2023-06-30T13:31:08.797Z,35.59
2023-06-30T13:32:17.972Z,36.08
2023-06-30T13:33:22.888Z,35.94
2023-06-30T13:34:26.221Z,36.50
2023-06-30T13:35:29.099Z,35.70
2023-06-30T13:36:32.456Z,35.24
2023-06-30T13:37:41.974Z,34.11
2023-06-30T13:38:45.707Z,34.34
2023-06-30T13:39:48.577Z,34.72
2023-06-30T13:40:51.440Z,33.98
2023-06-30T13:41:54.492Z,33.41
2023-06-30T13:43:04.591Z,33.97
2023-06-30T13:44:09.591Z,33.82
2023-06-30T13:45:12.818Z,34.59
2023-06-30T13:46:15.673Z,34.12
2023-06-30T13:47:18.785Z,34.63
2023-06-30T13:48:27.974Z,34.62
2023-06-30T13:49:30.894Z,35.46
2023-06-30T13:50:33.753Z,34.50
2023-06-30T13:51:37.691Z,34.98
2023-06-30T13:52:40.529Z,34.63
2023-06-30T13:53:50.066Z,34.62
2023-06-30T13:54:52.881Z,35.34
2023-06-30T13:55:58.407Z,36.39
2023-06-30T13:57:01.330Z,38.06
2023-06-30T13:58:04.189Z,37.51
2023-06-30T13:59:14.040Z,36.68
2023-06-30T14:00:17.296Z,34.40
2023-06-30T14:01:20.273Z,34.61
2023-06-30T14:02:23.486Z,34.76
2023-06-30T14:03:26.467Z,35.85
2023-06-30T14:04:36.142Z,37.10
2023-06-30T14:05:46.484Z,36.16
2023-06-30T14:06:49.710Z,35.15
2023-06-30T14:07:52.674Z,35.04